ANA1752 RJTT-RJFU
Flight info
| Callsign | ANA1752 |
|---|---|
| Flight time | 1h 39m |
| Altitude | 30000 |
| Route | TIARA GUSRO Y20 KAMMY Y204 OHGIE |
| Aircraft | B738/M-SDE2E3FGHIRWXY/LB1 |
Departure
| Time | 2026-04-25 20:34 |
|---|---|
| Airport | Tokyo Haneda International Airport (RJTT) |
Arrival
| Time | 2026-04-25 22:13 |
|---|---|
| Airport | Nagasaki Airport (RJFU) |
| Time | Latitude | Longitude | Altitude | Speed | Heading |
|---|---|---|---|---|---|
| 2026-04-25 19:41 | 35.55172 | 139.77991 | 32 ft | 0 kts | 108° |
| 2026-04-25 20:12 | 35.55173 | 139.77988 | 31 ft | 2 kts | 108° |
| 2026-04-25 20:12 | 35.55175 | 139.77983 | 31 ft | 2 kts | 108° |
| 2026-04-25 20:13 | 35.55182 | 139.77953 | 32 ft | 2 kts | 108° |
| 2026-04-25 20:13 | 35.55186 | 139.77936 | 32 ft | 2 kts | 108° |
| 2026-04-25 20:13 | 35.55191 | 139.77918 | 32 ft | 2 kts | 108° |
| 2026-04-25 20:13 | 35.55196 | 139.77901 | 32 ft | 2 kts | 108° |
| 2026-04-25 20:14 | 35.55200 | 139.77882 | 32 ft | 2 kts | 108° |
| 2026-04-25 20:14 | 35.55206 | 139.77866 | 32 ft | 2 kts | 121° |
| 2026-04-25 20:14 | 35.55214 | 139.77850 | 32 ft | 2 kts | 132° |
| 2026-04-25 20:14 | 35.55225 | 139.77838 | 32 ft | 2 kts | 145° |
| 2026-04-25 20:15 | 35.55233 | 139.77834 | 33 ft | 1 kts | 152° |
| 2026-04-25 20:15 | 35.55236 | 139.77830 | 33 ft | 0 kts | 152° |
| 2026-04-25 20:17 | 35.55231 | 139.77834 | 32 ft | 2 kts | 152° |
| 2026-04-25 20:17 | 35.55204 | 139.77852 | 32 ft | 4 kts | 152° |
| 2026-04-25 20:17 | 35.55173 | 139.77873 | 31 ft | 5 kts | 150° |
| 2026-04-25 20:17 | 35.55139 | 139.77896 | 31 ft | 5 kts | 150° |
| 2026-04-25 20:18 | 35.55101 | 139.77924 | 30 ft | 6 kts | 150° |
| 2026-04-25 20:18 | 35.55060 | 139.77953 | 29 ft | 7 kts | 150° |
| 2026-04-25 20:18 | 35.55016 | 139.77983 | 28 ft | 7 kts | 150° |
| 2026-04-25 20:18 | 35.54968 | 139.78018 | 27 ft | 8 kts | 149° |
| 2026-04-25 20:19 | 35.54915 | 139.78056 | 26 ft | 9 kts | 149° |
| 2026-04-25 20:19 | 35.54856 | 139.78099 | 24 ft | 10 kts | 150° |
| 2026-04-25 20:19 | 35.54791 | 139.78145 | 22 ft | 11 kts | 150° |
| 2026-04-25 20:19 | 35.54722 | 139.78195 | 21 ft | 11 kts | 150° |
| 2026-04-25 20:20 | 35.54652 | 139.78244 | 21 ft | 11 kts | 149° |
| 2026-04-25 20:20 | 35.54588 | 139.78290 | 21 ft | 10 kts | 152° |
| 2026-04-25 20:20 | 35.54530 | 139.78330 | 22 ft | 8 kts | 150° |
| 2026-04-25 20:20 | 35.54482 | 139.78363 | 22 ft | 7 kts | 150° |
| 2026-04-25 20:21 | 35.54441 | 139.78392 | 22 ft | 7 kts | 150° |
| 2026-04-25 20:21 | 35.54401 | 139.78421 | 23 ft | 6 kts | 150° |
| 2026-04-25 20:21 | 35.54368 | 139.78444 | 23 ft | 4 kts | 149° |
| 2026-04-25 20:21 | 35.54340 | 139.78464 | 23 ft | 6 kts | 149° |
| 2026-04-25 20:22 | 35.54295 | 139.78496 | 24 ft | 6 kts | 150° |
| 2026-04-25 20:22 | 35.54283 | 139.78505 | 25 ft | 5 kts | 149° |
| 2026-04-25 20:22 | 35.54246 | 139.78531 | 26 ft | 2 kts | 149° |
| 2026-04-25 20:22 | 35.54214 | 139.78580 | 28 ft | 13 kts | 99° |
| 2026-04-25 20:23 | 35.54239 | 139.78662 | 32 ft | 7 kts | 60° |
| 2026-04-25 20:23 | 35.54270 | 139.78726 | 36 ft | 11 kts | 59° |
| 2026-04-25 20:23 | 35.54315 | 139.78822 | 37 ft | 6 kts | 60° |
| 2026-04-25 20:23 | 35.54334 | 139.78860 | 38 ft | 5 kts | 60° |
| 2026-04-25 20:24 | 35.54356 | 139.78908 | 37 ft | 7 kts | 60° |
| 2026-04-25 20:24 | 35.54383 | 139.78964 | 37 ft | 7 kts | 59° |
| 2026-04-25 20:24 | 35.54411 | 139.79022 | 36 ft | 8 kts | 60° |
| 2026-04-25 20:24 | 35.54463 | 139.79132 | 31 ft | 19 kts | 59° |
| 2026-04-25 20:25 | 35.54518 | 139.79250 | 24 ft | 13 kts | 60° |
| 2026-04-25 20:25 | 35.54571 | 139.79362 | 19 ft | 13 kts | 60° |
| 2026-04-25 20:25 | 35.54542 | 139.79431 | 17 ft | 10 kts | 142° |
| 2026-04-25 20:25 | 35.54480 | 139.79474 | 16 ft | 9 kts | 151° |
| 2026-04-25 20:26 | 35.54423 | 139.79515 | 16 ft | 9 kts | 150° |
| 2026-04-25 20:26 | 35.54370 | 139.79553 | 16 ft | 8 kts | 150° |
| 2026-04-25 20:26 | 35.54325 | 139.79585 | 16 ft | 7 kts | 150° |
| 2026-04-25 20:26 | 35.54282 | 139.79616 | 16 ft | 7 kts | 150° |
| 2026-04-25 20:27 | 35.54231 | 139.79651 | 15 ft | 11 kts | 149° |
| 2026-04-25 20:27 | 35.54130 | 139.79723 | 14 ft | 18 kts | 150° |
| 2026-04-25 20:27 | 35.54053 | 139.79778 | 13 ft | 11 kts | 149° |
| 2026-04-25 20:27 | 35.53986 | 139.79825 | 12 ft | 11 kts | 150° |
| 2026-04-25 20:28 | 35.53916 | 139.79874 | 11 ft | 11 kts | 150° |
| 2026-04-25 20:28 | 35.53846 | 139.79924 | 10 ft | 11 kts | 149° |
| 2026-04-25 20:28 | 35.53776 | 139.79974 | 9 ft | 11 kts | 150° |
| 2026-04-25 20:28 | 35.53706 | 139.80025 | 8 ft | 11 kts | 150° |
| 2026-04-25 20:29 | 35.53639 | 139.80074 | 8 ft | 10 kts | 149° |
| 2026-04-25 20:29 | 35.53577 | 139.80119 | 8 ft | 9 kts | 152° |
| 2026-04-25 20:29 | 35.53500 | 139.80171 | 8 ft | 15 kts | 150° |
| 2026-04-25 20:29 | 35.53405 | 139.80238 | 8 ft | 15 kts | 150° |
| 2026-04-25 20:30 | 35.53317 | 139.80302 | 8 ft | 14 kts | 149° |
| 2026-04-25 20:30 | 35.53233 | 139.80364 | 8 ft | 13 kts | 149° |
| 2026-04-25 20:30 | 35.53152 | 139.80418 | 8 ft | 12 kts | 150° |
| 2026-04-25 20:30 | 35.53077 | 139.80472 | 8 ft | 12 kts | 150° |
| 2026-04-25 20:31 | 35.53005 | 139.80522 | 8 ft | 11 kts | 150° |
| 2026-04-25 20:31 | 35.52939 | 139.80569 | 8 ft | 10 kts | 150° |
| 2026-04-25 20:31 | 35.52875 | 139.80576 | 8 ft | 10 kts | 210° |
| 2026-04-25 20:31 | 35.52792 | 139.80484 | 8 ft | 21 kts | 222° |
| 2026-04-25 20:32 | 35.52683 | 139.80360 | 8 ft | 21 kts | 223° |
| 2026-04-25 20:32 | 35.52576 | 139.80243 | 8 ft | 16 kts | 219° |
| 2026-04-25 20:32 | 35.52501 | 139.80237 | 8 ft | 11 kts | 143° |
| 2026-04-25 20:32 | 35.52451 | 139.80306 | 8 ft | 10 kts | 129° |
| 2026-04-25 20:33 | 35.52445 | 139.80383 | 8 ft | 9 kts | 73° |
| 2026-04-25 20:33 | 35.52484 | 139.80438 | 8 ft | 8 kts | 43° |
| 2026-04-25 20:33 | 35.52499 | 139.80455 | 8 ft | 0 kts | 43° |
| 2026-04-25 20:33 | 35.52501 | 139.80458 | 8 ft | 1 kts | 43° |
| 2026-04-25 20:34 | 35.52829 | 139.80829 | 8 ft | 100 kts | 42° |
| 2026-04-25 20:34 | 35.53529 | 139.81615 | 75 ft | 167 kts | 42° |
| 2026-04-25 20:34 | 35.54392 | 139.82636 | 980 ft | 174 kts | 44° |
| 2026-04-25 20:34 | 35.55265 | 139.83568 | 1908 ft | 174 kts | 32° |
| 2026-04-25 20:35 | 35.56507 | 139.83760 | 2307 ft | 194 kts | 345° |
| 2026-04-25 20:35 | 35.57578 | 139.82712 | 2681 ft | 212 kts | 301° |
| 2026-04-25 20:35 | 35.57990 | 139.80887 | 3037 ft | 232 kts | 272° |
| 2026-04-25 20:35 | 35.57985 | 139.78860 | 3502 ft | 247 kts | 271° |
| 2026-04-25 20:36 | 35.58133 | 139.76710 | 4021 ft | 260 kts | 278° |
| 2026-04-25 20:36 | 35.58484 | 139.74480 | 4524 ft | 273 kts | 283° |
| 2026-04-25 20:36 | 35.58919 | 139.72220 | 5268 ft | 275 kts | 283° |
| 2026-04-25 20:36 | 35.59365 | 139.69931 | 6102 ft | 274 kts | 283° |
| 2026-04-25 20:37 | 35.59795 | 139.67645 | 6810 ft | 279 kts | 282° |
| 2026-04-25 20:37 | 35.60215 | 139.65344 | 7611 ft | 280 kts | 282° |
| 2026-04-25 20:37 | 35.60635 | 139.63011 | 8416 ft | 281 kts | 281° |
| 2026-04-25 20:37 | 35.61050 | 139.60702 | 9189 ft | 282 kts | 281° |
| 2026-04-25 20:38 | 35.61471 | 139.58377 | 9949 ft | 285 kts | 281° |
| 2026-04-25 20:38 | 35.61914 | 139.55928 | 10568 ft | 295 kts | 281° |
| 2026-04-25 20:38 | 35.62363 | 139.53426 | 11032 ft | 310 kts | 281° |
| 2026-04-25 20:38 | 35.62839 | 139.50766 | 11484 ft | 325 kts | 281° |
| 2026-04-25 20:39 | 35.63331 | 139.48022 | 11919 ft | 340 kts | 281° |
| 2026-04-25 20:39 | 35.63851 | 139.45123 | 12316 ft | 355 kts | 281° |
| 2026-04-25 20:39 | 35.64401 | 139.42084 | 12745 ft | 369 kts | 281° |
| 2026-04-25 20:39 | 35.64584 | 139.41074 | 12850 ft | 375 kts | 281° |
| 2026-04-25 20:40 | 35.65540 | 139.35779 | 14007 ft | 382 kts | 281° |
| 2026-04-25 20:40 | 35.65994 | 139.32579 | 14914 ft | 379 kts | 274° |
| 2026-04-25 20:40 | 35.66163 | 139.29366 | 15758 ft | 379 kts | 270° |
| 2026-04-25 20:40 | 35.66214 | 139.26170 | 16585 ft | 379 kts | 269° |
| 2026-04-25 20:41 | 35.66232 | 139.22922 | 17245 ft | 383 kts | 268° |
| 2026-04-25 20:41 | 35.66244 | 139.19667 | 18015 ft | 383 kts | 268° |
| 2026-04-25 20:41 | 35.66261 | 139.16380 | 18749 ft | 385 kts | 268° |
| 2026-04-25 20:41 | 35.66284 | 139.13092 | 19408 ft | 389 kts | 268° |
| 2026-04-25 20:42 | 35.66229 | 139.09773 | 20077 ft | 392 kts | 266° |
| 2026-04-25 20:42 | 35.66091 | 139.06439 | 20784 ft | 393 kts | 265° |
| 2026-04-25 20:42 | 35.65920 | 139.03108 | 21356 ft | 398 kts | 265° |
| 2026-04-25 20:42 | 35.65734 | 138.99677 | 21966 ft | 401 kts | 264° |
| 2026-04-25 20:43 | 35.65554 | 138.96295 | 22520 ft | 405 kts | 264° |
| 2026-04-25 20:43 | 35.65374 | 138.92802 | 23056 ft | 410 kts | 264° |
| 2026-04-25 20:43 | 35.65199 | 138.89296 | 23693 ft | 411 kts | 265° |
| 2026-04-25 20:43 | 35.65032 | 138.85826 | 24628 ft | 403 kts | 264° |
| 2026-04-25 20:44 | 35.64870 | 138.82397 | 25240 ft | 404 kts | 265° |
| 2026-04-25 20:44 | 35.64712 | 138.79021 | 25978 ft | 400 kts | 265° |
| 2026-04-25 20:44 | 35.64553 | 138.75591 | 26666 ft | 398 kts | 264° |
| 2026-04-25 20:44 | 35.64395 | 138.72231 | 27215 ft | 398 kts | 264° |
| 2026-04-25 20:45 | 35.64234 | 138.68846 | 27974 ft | 392 kts | 265° |
| 2026-04-25 20:45 | 35.64081 | 138.65616 | 29269 ft | 372 kts | 264° |
| 2026-04-25 20:45 | 35.63929 | 138.62540 | 30101 ft | 362 kts | 264° |
| 2026-04-25 20:45 | 35.63769 | 138.59422 | 30193 ft | 368 kts | 263° |
| 2026-04-25 20:46 | 35.63443 | 138.53207 | 30204 ft | 362 kts | 264° |
| 2026-04-25 20:46 | 35.63106 | 138.46994 | 30200 ft | 365 kts | 264° |
| 2026-04-25 20:47 | 35.62773 | 138.40817 | 30184 ft | 365 kts | 263° |
| 2026-04-25 20:47 | 35.62440 | 138.34578 | 30186 ft | 366 kts | 263° |
| 2026-04-25 20:48 | 35.62101 | 138.28355 | 30201 ft | 365 kts | 263° |
| 2026-04-25 20:48 | 35.61762 | 138.22160 | 30202 ft | 364 kts | 263° |
| 2026-04-25 20:49 | 35.61424 | 138.15930 | 30191 ft | 365 kts | 263° |
| 2026-04-25 20:49 | 35.61078 | 138.09735 | 30181 ft | 366 kts | 263° |
| 2026-04-25 20:50 | 35.60722 | 138.03490 | 30183 ft | 367 kts | 263° |
| 2026-04-25 20:50 | 35.60367 | 137.97266 | 30174 ft | 365 kts | 263° |
| 2026-04-25 20:51 | 35.60013 | 137.91049 | 30177 ft | 365 kts | 263° |
| 2026-04-25 20:51 | 35.59656 | 137.84836 | 30181 ft | 367 kts | 263° |
| 2026-04-25 20:52 | 35.59350 | 137.79620 | 30170 ft | 368 kts | 263° |
| 2026-04-25 20:52 | 35.58841 | 137.72319 | 30163 ft | 367 kts | 262° |
| 2026-04-25 20:53 | 35.58361 | 137.66058 | 30162 ft | 369 kts | 262° |
| 2026-04-25 20:53 | 35.57889 | 137.59866 | 30172 ft | 366 kts | 262° |
| 2026-04-25 20:54 | 35.57372 | 137.53650 | 30183 ft | 367 kts | 259° |
| 2026-04-25 20:54 | 35.56282 | 137.47551 | 30183 ft | 364 kts | 254° |
| 2026-04-25 20:55 | 35.54950 | 137.41589 | 30191 ft | 366 kts | 255° |
| 2026-04-25 20:55 | 35.53589 | 137.35567 | 30192 ft | 366 kts | 254° |
| 2026-04-25 20:56 | 35.52249 | 137.29552 | 30181 ft | 363 kts | 253° |
| 2026-04-25 20:56 | 35.50925 | 137.23572 | 30179 ft | 364 kts | 253° |
| 2026-04-25 20:57 | 35.49605 | 137.17590 | 30184 ft | 363 kts | 254° |
| 2026-04-25 20:57 | 35.48287 | 137.11633 | 30178 ft | 363 kts | 254° |
| 2026-04-25 20:58 | 35.46953 | 137.05631 | 30189 ft | 365 kts | 254° |
| 2026-04-25 20:58 | 35.45625 | 136.99675 | 30181 ft | 363 kts | 253° |
| 2026-04-25 20:59 | 35.44290 | 136.93698 | 30188 ft | 365 kts | 254° |
| 2026-04-25 20:59 | 35.42956 | 136.87733 | 30178 ft | 364 kts | 254° |
| 2026-04-25 21:00 | 35.42058 | 136.83728 | 30168 ft | 364 kts | 254° |
| 2026-04-25 21:01 | 35.39598 | 136.72804 | 30171 ft | 363 kts | 253° |
| 2026-04-25 21:01 | 35.38249 | 136.66840 | 30169 ft | 365 kts | 253° |
| 2026-04-25 21:02 | 35.36905 | 136.60884 | 30159 ft | 361 kts | 254° |
| 2026-04-25 21:02 | 35.35555 | 136.54938 | 30158 ft | 363 kts | 253° |
| 2026-04-25 21:03 | 35.34198 | 136.48975 | 30153 ft | 362 kts | 253° |
| 2026-04-25 21:03 | 35.32844 | 136.43033 | 30153 ft | 363 kts | 253° |
| 2026-04-25 21:04 | 35.31484 | 136.37105 | 30160 ft | 362 kts | 253° |
| 2026-04-25 21:04 | 35.30123 | 136.31172 | 30161 ft | 361 kts | 253° |
| 2026-04-25 21:05 | 35.28762 | 136.25264 | 30166 ft | 362 kts | 253° |
| 2026-04-25 21:05 | 35.27404 | 136.19347 | 30173 ft | 362 kts | 252° |
| 2026-04-25 21:06 | 35.26044 | 136.13446 | 30170 ft | 359 kts | 253° |
| 2026-04-25 21:06 | 35.24679 | 136.07538 | 30166 ft | 360 kts | 253° |
| 2026-04-25 21:07 | 35.23319 | 136.01688 | 30164 ft | 361 kts | 253° |
| 2026-04-25 21:07 | 35.21938 | 135.95754 | 30158 ft | 361 kts | 253° |
| 2026-04-25 21:08 | 35.20567 | 135.89873 | 30160 ft | 359 kts | 253° |
| 2026-04-25 21:08 | 35.19193 | 135.83997 | 30150 ft | 361 kts | 252° |
| 2026-04-25 21:09 | 35.17302 | 135.75095 | 30154 ft | 362 kts | 256° |
| 2026-04-25 21:09 | 35.16347 | 135.69047 | 30155 ft | 364 kts | 257° |
| 2026-04-25 21:10 | 35.15365 | 135.62964 | 30151 ft | 365 kts | 256° |
| 2026-04-25 21:10 | 35.14358 | 135.56906 | 30152 ft | 364 kts | 256° |
| 2026-04-25 21:11 | 35.13338 | 135.50867 | 30137 ft | 364 kts | 256° |
| 2026-04-25 21:11 | 35.12306 | 135.44788 | 30143 ft | 366 kts | 257° |
| 2026-04-25 21:12 | 35.11274 | 135.38730 | 30143 ft | 364 kts | 256° |
| 2026-04-25 21:12 | 35.10408 | 135.33652 | 30141 ft | 368 kts | 256° |
| 2026-04-25 21:13 | 35.09191 | 135.26559 | 30124 ft | 367 kts | 256° |
| 2026-04-25 21:13 | 35.08146 | 135.20508 | 30145 ft | 367 kts | 256° |
| 2026-04-25 21:14 | 35.07090 | 135.14400 | 30125 ft | 368 kts | 256° |
| 2026-04-25 21:14 | 35.06036 | 135.08319 | 30130 ft | 368 kts | 256° |
| 2026-04-25 21:15 | 35.04980 | 135.02222 | 30129 ft | 367 kts | 256° |
| 2026-04-25 21:15 | 35.03914 | 134.96104 | 30130 ft | 368 kts | 256° |
| 2026-04-25 21:16 | 35.02846 | 134.90006 | 30135 ft | 369 kts | 256° |
| 2026-04-25 21:16 | 35.01772 | 134.83893 | 30133 ft | 370 kts | 256° |
| 2026-04-25 21:17 | 35.00692 | 134.77774 | 30128 ft | 371 kts | 256° |
| 2026-04-25 21:17 | 34.99610 | 134.71649 | 30133 ft | 369 kts | 256° |
| 2026-04-25 21:18 | 34.98392 | 134.65558 | 30123 ft | 371 kts | 252° |
| 2026-04-25 21:18 | 34.96827 | 134.59593 | 30131 ft | 370 kts | 251° |
| 2026-04-25 21:19 | 34.95222 | 134.53650 | 30144 ft | 370 kts | 251° |
| 2026-04-25 21:19 | 34.93635 | 134.47665 | 30125 ft | 371 kts | 251° |
| 2026-04-25 21:20 | 34.92594 | 134.43707 | 30124 ft | 369 kts | 251° |
| 2026-04-25 21:20 | 34.90517 | 134.35767 | 30128 ft | 371 kts | 251° |
| 2026-04-25 21:21 | 34.88949 | 134.29770 | 30139 ft | 371 kts | 251° |
| 2026-04-25 21:21 | 34.87373 | 134.23758 | 30123 ft | 372 kts | 251° |
| 2026-04-25 21:22 | 34.85790 | 134.17744 | 30135 ft | 373 kts | 251° |
| 2026-04-25 21:22 | 34.84203 | 134.11722 | 30143 ft | 374 kts | 251° |
| 2026-04-25 21:23 | 34.82614 | 134.05701 | 30123 ft | 372 kts | 251° |
| 2026-04-25 21:23 | 34.81034 | 133.99728 | 30138 ft | 374 kts | 251° |
| 2026-04-25 21:24 | 34.79438 | 133.93712 | 30119 ft | 373 kts | 251° |
| 2026-04-25 21:24 | 34.77846 | 133.87724 | 30118 ft | 374 kts | 251° |
| 2026-04-25 21:25 | 34.76245 | 133.81720 | 30130 ft | 373 kts | 251° |
| 2026-04-25 21:25 | 34.74638 | 133.75700 | 30119 ft | 375 kts | 251° |
| 2026-04-25 21:26 | 34.73036 | 133.69710 | 30121 ft | 373 kts | 251° |
| 2026-04-25 21:26 | 34.71427 | 133.63715 | 30113 ft | 374 kts | 251° |
| 2026-04-25 21:27 | 34.69809 | 133.57701 | 30111 ft | 372 kts | 251° |
| 2026-04-25 21:27 | 34.68193 | 133.51715 | 30120 ft | 374 kts | 251° |
| 2026-04-25 21:28 | 34.66583 | 133.45761 | 30115 ft | 373 kts | 251° |
| 2026-04-25 21:28 | 34.64963 | 133.39775 | 30111 ft | 374 kts | 250° |
| 2026-04-25 21:29 | 34.63333 | 133.33756 | 30111 ft | 374 kts | 250° |
| 2026-04-25 21:29 | 34.61714 | 133.27792 | 30111 ft | 375 kts | 250° |
| 2026-04-25 21:30 | 34.60071 | 133.21765 | 30107 ft | 375 kts | 250° |
| 2026-04-25 21:30 | 34.58713 | 133.16780 | 30100 ft | 375 kts | 250° |
| 2026-04-25 21:31 | 34.56801 | 133.09782 | 30106 ft | 375 kts | 251° |
| 2026-04-25 21:31 | 34.55164 | 133.03819 | 30103 ft | 374 kts | 250° |
| 2026-04-25 21:32 | 34.53511 | 132.97807 | 30098 ft | 377 kts | 250° |
| 2026-04-25 21:32 | 34.51856 | 132.91801 | 30097 ft | 375 kts | 250° |
| 2026-04-25 21:33 | 34.50207 | 132.85823 | 30093 ft | 374 kts | 250° |
| 2026-04-25 21:33 | 34.48553 | 132.79843 | 30097 ft | 375 kts | 250° |
| 2026-04-25 21:34 | 34.46885 | 132.73825 | 30090 ft | 378 kts | 250° |
| 2026-04-25 21:34 | 34.45219 | 132.67831 | 30078 ft | 377 kts | 250° |
| 2026-04-25 21:35 | 34.43532 | 132.61777 | 30075 ft | 378 kts | 250° |
| 2026-04-25 21:35 | 34.41858 | 132.55772 | 30076 ft | 380 kts | 250° |
| 2026-04-25 21:36 | 34.40174 | 132.49748 | 30069 ft | 377 kts | 250° |
| 2026-04-25 21:36 | 34.38496 | 132.43744 | 30074 ft | 379 kts | 250° |
| 2026-04-25 21:37 | 34.37087 | 132.38715 | 30065 ft | 378 kts | 250° |
| 2026-04-25 21:37 | 34.35109 | 132.31671 | 30070 ft | 379 kts | 250° |
| 2026-04-25 21:38 | 34.33421 | 132.25694 | 30069 ft | 376 kts | 249° |
| 2026-04-25 21:38 | 34.31720 | 132.19678 | 30059 ft | 379 kts | 249° |
| 2026-04-25 21:39 | 34.30018 | 132.13655 | 30063 ft | 379 kts | 250° |
| 2026-04-25 21:39 | 34.28305 | 132.07620 | 30071 ft | 378 kts | 249° |
| 2026-04-25 21:40 | 34.26597 | 132.01617 | 30057 ft | 380 kts | 249° |
| 2026-04-25 21:40 | 34.24876 | 131.95572 | 30062 ft | 377 kts | 249° |
| 2026-04-25 21:41 | 34.23171 | 131.89587 | 30052 ft | 381 kts | 249° |
| 2026-04-25 21:41 | 34.21455 | 131.83581 | 30058 ft | 379 kts | 249° |
| 2026-04-25 21:42 | 34.19721 | 131.77541 | 30058 ft | 381 kts | 249° |
| 2026-04-25 21:42 | 34.17992 | 131.71527 | 30047 ft | 381 kts | 249° |
| 2026-04-25 21:43 | 34.16255 | 131.65500 | 30048 ft | 380 kts | 249° |
| 2026-04-25 21:43 | 34.14518 | 131.59485 | 30048 ft | 382 kts | 249° |
| 2026-04-25 21:44 | 34.12778 | 131.53456 | 30044 ft | 380 kts | 249° |
| 2026-04-25 21:45 | 34.10169 | 131.44438 | 30037 ft | 383 kts | 249° |
| 2026-04-25 21:45 | 34.08431 | 131.38440 | 30039 ft | 381 kts | 249° |
| 2026-04-25 21:46 | 34.06659 | 131.32396 | 30044 ft | 381 kts | 247° |
| 2026-04-25 21:46 | 34.04493 | 131.26564 | 30033 ft | 383 kts | 243° |
| 2026-04-25 21:47 | 34.02083 | 131.20900 | 30038 ft | 380 kts | 242° |
| 2026-04-25 21:47 | 33.99668 | 131.15233 | 30022 ft | 379 kts | 242° |
| 2026-04-25 21:48 | 33.97304 | 131.09604 | 30034 ft | 380 kts | 242° |
| 2026-04-25 21:48 | 33.94931 | 131.03926 | 30046 ft | 382 kts | 242° |
| 2026-04-25 21:49 | 33.92548 | 130.98221 | 30033 ft | 380 kts | 242° |
| 2026-04-25 21:49 | 33.90173 | 130.92532 | 30033 ft | 382 kts | 242° |
| 2026-04-25 21:50 | 33.87799 | 130.86859 | 30041 ft | 380 kts | 243° |
| 2026-04-25 21:50 | 33.85419 | 130.81177 | 30036 ft | 381 kts | 242° |
| 2026-04-25 21:51 | 33.83040 | 130.75478 | 30023 ft | 383 kts | 242° |
| 2026-04-25 21:51 | 33.80650 | 130.69783 | 30018 ft | 381 kts | 242° |
| 2026-04-25 21:52 | 33.78252 | 130.64087 | 30019 ft | 385 kts | 242° |
| 2026-04-25 21:52 | 33.75875 | 130.58437 | 29951 ft | 372 kts | 242° |
| 2026-04-25 21:52 | 33.74719 | 130.55692 | 29617 ft | 370 kts | 242° |
| 2026-04-25 21:53 | 33.73554 | 130.52934 | 29087 ft | 372 kts | 242° |
| 2026-04-25 21:53 | 33.72386 | 130.50169 | 28393 ft | 375 kts | 242° |
| 2026-04-25 21:53 | 33.71205 | 130.47385 | 27664 ft | 377 kts | 242° |
| 2026-04-25 21:53 | 33.70000 | 130.44592 | 26828 ft | 379 kts | 240° |
| 2026-04-25 21:54 | 33.68631 | 130.41919 | 25965 ft | 381 kts | 234° |
| 2026-04-25 21:54 | 33.66895 | 130.39494 | 25071 ft | 385 kts | 225° |
| 2026-04-25 21:54 | 33.64818 | 130.37474 | 24181 ft | 389 kts | 216° |
| 2026-04-25 21:54 | 33.62529 | 130.35782 | 23380 ft | 391 kts | 211° |
| 2026-04-25 21:55 | 33.60126 | 130.34224 | 22808 ft | 399 kts | 208° |
| 2026-04-25 21:55 | 33.57581 | 130.32649 | 22150 ft | 422 kts | 208° |
| 2026-04-25 21:55 | 33.54938 | 130.31041 | 21398 ft | 424 kts | 208° |
| 2026-04-25 21:55 | 33.52327 | 130.29465 | 20674 ft | 419 kts | 207° |
| 2026-04-25 21:56 | 33.49759 | 130.27913 | 19964 ft | 413 kts | 208° |
| 2026-04-25 21:56 | 33.48068 | 130.26889 | 19489 ft | 410 kts | 208° |
| 2026-04-25 21:56 | 33.44714 | 130.24855 | 18528 ft | 404 kts | 208° |
| 2026-04-25 21:56 | 33.42236 | 130.23338 | 17834 ft | 401 kts | 208° |
| 2026-04-25 21:57 | 33.39734 | 130.21809 | 17139 ft | 402 kts | 207° |
| 2026-04-25 21:57 | 33.37242 | 130.20276 | 16437 ft | 401 kts | 208° |
| 2026-04-25 21:57 | 33.34837 | 130.18636 | 15750 ft | 395 kts | 212° |
| 2026-04-25 21:57 | 33.32637 | 130.16704 | 15070 ft | 390 kts | 220° |
| 2026-04-25 21:58 | 33.30697 | 130.14494 | 14401 ft | 385 kts | 225° |
| 2026-04-25 21:58 | 33.28897 | 130.12129 | 13718 ft | 380 kts | 228° |
| 2026-04-25 21:58 | 33.27195 | 130.09738 | 13057 ft | 380 kts | 229° |
| 2026-04-25 21:58 | 33.25504 | 130.07314 | 12364 ft | 381 kts | 229° |
| 2026-04-25 21:59 | 33.23821 | 130.04909 | 11707 ft | 375 kts | 229° |
| 2026-04-25 21:59 | 33.22171 | 130.02570 | 11256 ft | 364 kts | 229° |
| 2026-04-25 21:59 | 33.20562 | 130.00305 | 11003 ft | 349 kts | 229° |
| 2026-04-25 22:00 | 33.17545 | 129.96104 | 10726 ft | 317 kts | 228° |
| 2026-04-25 22:00 | 33.16143 | 129.94159 | 10580 ft | 304 kts | 228° |
| 2026-04-25 22:00 | 33.14782 | 129.92268 | 10436 ft | 295 kts | 228° |
| 2026-04-25 22:00 | 33.13452 | 129.90422 | 10287 ft | 292 kts | 228° |
| 2026-04-25 22:01 | 33.12127 | 129.88676 | 10179 ft | 278 kts | 223° |
| 2026-04-25 22:01 | 33.10592 | 129.87364 | 10082 ft | 265 kts | 203° |
| 2026-04-25 22:01 | 33.08773 | 129.86943 | 9837 ft | 273 kts | 179° |
| 2026-04-25 22:01 | 33.07529 | 129.87146 | 9571 ft | 275 kts | 166° |
| 2026-04-25 22:02 | 33.05179 | 129.88327 | 9067 ft | 274 kts | 153° |
| 2026-04-25 22:02 | 33.03512 | 129.89432 | 8708 ft | 271 kts | 151° |
| 2026-04-25 22:02 | 33.01895 | 129.90536 | 8362 ft | 262 kts | 151° |
| 2026-04-25 22:02 | 33.00353 | 129.91576 | 8027 ft | 252 kts | 151° |
| 2026-04-25 22:03 | 32.98843 | 129.92581 | 7698 ft | 243 kts | 151° |
| 2026-04-25 22:03 | 32.97386 | 129.93544 | 7384 ft | 235 kts | 151° |
| 2026-04-25 22:03 | 32.95963 | 129.94479 | 7077 ft | 228 kts | 150° |
| 2026-04-25 22:03 | 32.94600 | 129.95377 | 6789 ft | 221 kts | 150° |
| 2026-04-25 22:04 | 32.93278 | 129.96243 | 6501 ft | 215 kts | 150° |
| 2026-04-25 22:04 | 32.91982 | 129.97096 | 6218 ft | 209 kts | 150° |
| 2026-04-25 22:04 | 32.90722 | 129.97922 | 5948 ft | 204 kts | 150° |
| 2026-04-25 22:04 | 32.89491 | 129.98727 | 5681 ft | 199 kts | 150° |
| 2026-04-25 22:05 | 32.88292 | 129.99515 | 5418 ft | 194 kts | 150° |
| 2026-04-25 22:05 | 32.87120 | 130.00281 | 5162 ft | 189 kts | 150° |
| 2026-04-25 22:05 | 32.85976 | 130.01035 | 4909 ft | 185 kts | 149° |
| 2026-04-25 22:05 | 32.84873 | 130.01758 | 4695 ft | 178 kts | 149° |
| 2026-04-25 22:06 | 32.83814 | 130.02454 | 4461 ft | 167 kts | 149° |
| 2026-04-25 22:06 | 32.82842 | 130.03091 | 4258 ft | 152 kts | 148° |
| 2026-04-25 22:06 | 32.81916 | 130.03699 | 4145 ft | 152 kts | 148° |
| 2026-04-25 22:06 | 32.80996 | 130.04308 | 4050 ft | 152 kts | 148° |
| 2026-04-25 22:07 | 32.80062 | 130.04919 | 3969 ft | 152 kts | 149° |
| 2026-04-25 22:07 | 32.79445 | 130.05322 | 3920 ft | 152 kts | 148° |
| 2026-04-25 22:07 | 32.78135 | 130.05962 | 3741 ft | 155 kts | 172° |
| 2026-04-25 22:07 | 32.77080 | 130.05618 | 3604 ft | 162 kts | 207° |
| 2026-04-25 22:08 | 32.76258 | 130.04704 | 3496 ft | 167 kts | 232° |
| 2026-04-25 22:08 | 32.75929 | 130.03372 | 3385 ft | 174 kts | 272° |
| 2026-04-25 22:08 | 32.76329 | 130.02042 | 3271 ft | 172 kts | 306° |
| 2026-04-25 22:08 | 32.77180 | 130.01094 | 3105 ft | 160 kts | 338° |
| 2026-04-25 22:09 | 32.78213 | 130.00906 | 2970 ft | 150 kts | 11° |
| 2026-04-25 22:09 | 32.79198 | 130.01277 | 2822 ft | 145 kts | 36° |
| 2026-04-25 22:09 | 32.79966 | 130.02035 | 2711 ft | 145 kts | 38° |
| 2026-04-25 22:09 | 32.80937 | 130.02335 | 2569 ft | 152 kts | 354° |
| 2026-04-25 22:10 | 32.81868 | 130.01717 | 2346 ft | 156 kts | 320° |
| 2026-04-25 22:10 | 32.82668 | 130.00853 | 2130 ft | 156 kts | 322° |
| 2026-04-25 22:10 | 32.83495 | 130.00009 | 1914 ft | 154 kts | 322° |
| 2026-04-25 22:10 | 32.84293 | 129.99178 | 1709 ft | 151 kts | 322° |
| 2026-04-25 22:11 | 32.85085 | 129.98347 | 1505 ft | 151 kts | 321° |
| 2026-04-25 22:11 | 32.85879 | 129.97513 | 1303 ft | 151 kts | 321° |
| 2026-04-25 22:11 | 32.86659 | 129.96693 | 1104 ft | 149 kts | 321° |
| 2026-04-25 22:11 | 32.87440 | 129.95865 | 902 ft | 149 kts | 320° |
| 2026-04-25 22:12 | 32.88222 | 129.95061 | 730 ft | 147 kts | 321° |
| 2026-04-25 22:12 | 32.88983 | 129.94260 | 592 ft | 148 kts | 320° |
| 2026-04-25 22:12 | 32.89751 | 129.93430 | 337 ft | 148 kts | 320° |
| 2026-04-25 22:12 | 32.90253 | 129.92892 | 213 ft | 145 kts | 320° |
| 2026-04-25 22:13 | 32.91242 | 129.91832 | 19 ft | 129 kts | 319° |
| 2026-04-25 22:13 | 32.91716 | 129.91324 | 14 ft | 58 kts | 317° |
| 2026-04-25 22:13 | 32.91988 | 129.91034 | 17 ft | 28 kts | 318° |
| 2026-04-25 22:13 | 32.92105 | 129.90910 | 17 ft | 24 kts | 318° |
| 2026-04-25 22:14 | 32.92244 | 129.90764 | 17 ft | 29 kts | 318° |
| 2026-04-25 22:14 | 32.92376 | 129.90669 | 17 ft | 18 kts | 23° |
| 2026-04-25 22:14 | 32.92435 | 129.90735 | 16 ft | 5 kts | 51° |
| 2026-04-25 22:14 | 32.92456 | 129.90767 | 16 ft | 4 kts | 77° |
| 2026-04-25 22:15 | 32.92448 | 129.90804 | 16 ft | 4 kts | 115° |
| 2026-04-25 22:15 | 32.92431 | 129.90831 | 16 ft | 4 kts | 130° |
| 2026-04-25 22:15 | 32.92410 | 129.90855 | 16 ft | 4 kts | 140° |
| 2026-04-25 22:16 | 32.92308 | 129.90965 | 16 ft | 13 kts | 138° |
| 2026-04-25 22:16 | 32.92238 | 129.91040 | 16 ft | 13 kts | 137° |
| 2026-04-25 22:16 | 32.92170 | 129.91113 | 16 ft | 12 kts | 137° |
| 2026-04-25 22:16 | 32.92105 | 129.91183 | 16 ft | 12 kts | 138° |
| 2026-04-25 22:17 | 32.92040 | 129.91251 | 17 ft | 12 kts | 138° |
| 2026-04-25 22:17 | 32.91979 | 129.91316 | 17 ft | 11 kts | 137° |
| 2026-04-25 22:17 | 32.91919 | 129.91382 | 17 ft | 11 kts | 137° |
| 2026-04-25 22:17 | 32.91861 | 129.91443 | 17 ft | 10 kts | 139° |
| 2026-04-25 22:18 | 32.91806 | 129.91502 | 17 ft | 10 kts | 138° |
| 2026-04-25 22:18 | 32.91753 | 129.91559 | 17 ft | 10 kts | 137° |
| 2026-04-25 22:18 | 32.91702 | 129.91612 | 17 ft | 9 kts | 138° |
| 2026-04-25 22:18 | 32.91651 | 129.91667 | 17 ft | 12 kts | 138° |
| 2026-04-25 22:19 | 32.91552 | 129.91774 | 17 ft | 21 kts | 137° |
| 2026-04-25 22:19 | 32.91445 | 129.91888 | 17 ft | 20 kts | 138° |
| 2026-04-25 22:19 | 32.91375 | 129.91965 | 17 ft | 0 kts | 137° |
| 2026-04-25 22:20 | 32.91359 | 129.91980 | 17 ft | 11 kts | 141° |
| 2026-04-25 22:20 | 32.91293 | 129.92053 | 18 ft | 12 kts | 147° |
| 2026-04-25 22:20 | 32.91233 | 129.92113 | 19 ft | 10 kts | 138° |
| 2026-04-25 22:20 | 32.91216 | 129.92171 | 20 ft | 7 kts | 50° |
| 2026-04-25 22:21 | 32.91251 | 129.92210 | 20 ft | 6 kts | 49° |
| 2026-04-25 22:21 | 32.91282 | 129.92250 | 20 ft | 6 kts | 48° |
| 2026-04-25 22:21 | 32.91301 | 129.92274 | 20 ft | 0 kts | 47° |